Time;durP1;ratioP1;P1;durP2;ratioP2;P2;SDS_P1;SDS_P2;PMS_P1;PMS_P2;Temp;Humidity;BMP_temperature;BMP_pressure;BME280_temperature;BME280_humidity;BME280_pressure;Samples;Min_cycle;Max_cycle;Signal;HPM_P1;HPM_P2
2022/05/13 00:02:24;;;;;;;1.75;1.13;;;15.30;96.90;;;15.63;64.15;101221.38;5143515;28;20134;-72
2022/05/13 00:04:58;;;;;;;1.58;1.20;;;15.30;97.10;;;15.57;64.05;101217.72;5147316;28;20479;-72
2022/05/13 00:07:30;;;;;;;1.98;1.13;;;15.30;97.10;;;15.51;64.32;101217.59;5163289;28;20493;-72
2022/05/13 00:10:05;;;;;;;2.47;1.20;;;15.20;97.30;;;15.45;64.54;101214.00;5158408;28;20049;-72
2022/05/13 00:12:41;;;;;;;1.90;1.50;;;15.10;97.50;;;15.40;64.85;101217.38;5160866;28;20411;-72
2022/05/13 00:15:17;;;;;;;1.95;1.23;;;15.10;97.70;;;15.33;65.30;101213.72;5163668;28;20057;-72
2022/05/13 00:17:49;;;;;;;1.60;1.50;;;15.00;97.90;;;15.28;65.49;101222.34;5163541;28;20435;-72
2022/05/13 00:20:23;;;;;;;2.17;1.00;;;15.00;98.10;;;15.21;65.58;101213.44;5163776;28;20323;-72
2022/05/13 00:22:58;;;;;;;2.00;1.30;;;14.90;98.10;;;15.14;65.86;101220.31;5144283;28;20050;-72
2022/05/13 00:25:36;;;;;;;2.80;1.42;;;14.80;98.30;;;15.09;66.05;101214.03;5143580;28;20057;-72
2022/05/13 00:28:09;;;;;;;1.45;1.00;;;14.80;98.60;;;15.05;66.56;101211.31;5143738;28;20047;-72
2022/05/13 00:30:45;;;;;;;2.25;1.23;;;14.80;98.90;;;15.02;66.61;101220.00;5143208;28;20051;-72
2022/05/13 00:33:19;;;;;;;1.67;0.95;;;14.70;99.10;;;14.99;66.84;101226.91;5142990;28;20057;-72
2022/05/13 00:35:53;;;;;;;1.83;1.10;;;14.70;99.20;;;14.95;67.00;101230.34;5148776;28;20053;-72
2022/05/13 00:38:25;;;;;;;2.05;1.40;;;14.60;99.30;;;14.90;66.93;101228.47;5163066;28;20054;-72
2022/05/13 00:40:58;;;;;;;1.52;1.13;;;14.60;99.40;;;14.89;67.14;101234.59;5151799;28;20129;-72
2022/05/13 00:43:51;;;;;;;1.67;1.48;;;14.60;99.60;;;14.85;67.21;101226.59;5142929;28;20430;-72
2022/05/13 00:46:24;;;;;;;1.17;1.08;;;14.50;99.60;;;14.82;67.41;101224.78;5152445;28;20054;-72
2022/05/13 00:48:58;;;;;;;1.98;1.00;;;14.50;99.80;;;14.81;67.72;101224.75;5162902;28;20054;-72
2022/05/13 00:51:38;;;;;;;1.90;1.58;;;14.50;99.90;;;14.80;67.68;101216.00;5163211;28;20577;-72
2022/05/13 00:54:13;;;;;;;3.47;1.50;;;14.50;99.90;;;14.78;67.62;101228.19;5160982;28;20053;-72
2022/05/13 00:56:48;;;;;;;1.65;1.20;;;14.40;99.90;;;14.75;67.76;101220.25;5158239;28;20134;-72
2022/05/13 00:59:24;;;;;;;3.05;1.40;;;14.40;99.90;;;14.74;67.92;101223.72;5159471;28;20061;-72
2022/05/13 01:01:56;;;;;;;2.22;1.10;;;14.40;99.90;;;14.74;67.94;101212.34;5142214;28;20487;-72
2022/05/13 01:04:31;;;;;;;2.00;1.40;;;14.40;99.90;;;14.76;67.82;101226.38;5142874;28;20060;-72
2022/05/13 01:07:11;;;;;;;3.45;1.10;;;14.40;99.90;;;14.75;67.92;101216.72;5143550;28;20042;-72
2022/05/13 01:09:51;;;;;;;2.35;1.25;;;14.40;99.90;;;14.70;68.00;101219.22;5142768;28;20492;-72
2022/05/13 01:12:31;;;;;;;3.83;1.20;;;14.40;99.90;;;14.66;68.07;101220.88;5142721;28;20415;-72
2022/05/13 01:15:07;;;;;;;2.55;1.50;;;14.40;99.90;;;14.62;68.02;101226.91;5143062;28;20043;-72
2022/05/13 01:20:37;;;;;;;2.47;1.33;;;14.30;99.90;;;14.51;68.33;101225.75;5161227;28;20086;-72
2022/05/13 01:23:17;;;;;;;1.63;1.30;;;14.20;99.90;;;14.45;68.36;101232.53;5160532;28;20066;-72
2022/05/13 01:25:53;;;;;;;2.00;1.30;;;14.20;99.90;;;14.37;68.72;101230.63;5152717;28;20496;-72
2022/05/13 01:28:30;;;;;;;2.15;1.13;;;14.10;99.90;;;14.33;69.06;101239.22;5160115;28;20133;-72
2022/05/13 01:31:04;;;;;;;2.03;1.33;;;14.10;99.90;;;14.29;69.43;101232.16;5163075;28;20042;-72
2022/05/13 01:33:37;;;;;;;3.75;1.33;;;14.00;99.90;;;14.27;69.68;101228.56;5162115;28;20137;-72
2022/05/13 01:36:12;;;;;;;1.95;1.23;;;14.00;99.90;;;14.24;69.93;101228.50;5157655;28;20062;-72
2022/05/13 01:38:46;;;;;;;1.77;1.38;;;14.00;99.90;;;14.22;70.22;101231.94;5161035;28;20051;-72
2022/05/13 01:41:19;;;;;;;3.47;1.42;;;13.90;99.90;;;14.19;70.34;101235.34;5156325;28;20142;-72
2022/05/13 01:43:52;;;;;;;2.35;1.33;;;13.90;99.90;;;14.17;70.35;101230.94;5155517;28;20042;-72
2022/05/13 01:46:25;;;;;;;1.92;1.40;;;13.90;99.90;;;14.15;70.33;101232.59;5153282;28;20078;-72
2022/05/13 01:48:57;;;;;;;1.90;1.35;;;13.90;99.90;;;14.15;70.44;101238.75;5142489;28;20053;-72
2022/05/13 01:51:29;;;;;;;1.70;1.45;;;13.90;99.90;;;14.13;70.42;101240.44;5142283;28;20078;-72
2022/05/13 01:54:02;;;;;;;3.42;1.33;;;13.90;99.90;;;14.10;70.94;101240.38;5142417;28;20129;-72
2022/05/13 01:56:34;;;;;;;4.32;1.58;;;13.90;99.90;;;14.08;70.88;101236.78;5142451;28;20043;-72
2022/05/13 01:59:06;;;;;;;1.50;1.27;;;13.80;99.90;;;14.06;71.19;101242.00;5155191;28;20538;-72
2022/05/13 02:01:38;;;;;;;2.20;1.33;;;13.80;99.90;;;14.06;71.30;101243.75;5162281;28;20542;-72
2022/05/13 02:04:10;;;;;;;1.98;1.20;;;13.80;99.90;;;14.03;71.24;101246.28;5158405;28;20129;-72
2022/05/13 02:06:42;;;;;;;2.65;1.38;;;13.80;99.90;;;14.00;71.04;101244.44;5143186;28;20134;-71
2022/05/13 02:09:16;;;;;;;3.00;1.52;;;13.80;99.90;;;13.97;70.94;101256.59;5143202;28;20050;-72
2022/05/13 02:11:48;;;;;;;2.00;1.30;;;13.70;99.90;;;13.97;71.50;101256.59;5142701;28;20053;-71
2022/05/13 02:14:20;;;;;;;2.83;1.13;;;13.70;99.90;;;13.99;71.65;101257.53;5143446;28;20138;-72
2022/05/13 02:16:52;;;;;;;1.77;1.10;;;13.70;99.90;;;14.02;71.86;101257.63;5146893;28;20050;-72
2022/05/13 02:19:24;;;;;;;2.03;1.42;;;13.80;99.90;;;14.07;71.77;101266.47;5146748;28;20101;-72
2022/05/13 02:21:56;;;;;;;2.28;1.15;;;13.80;99.90;;;14.11;71.49;101265.72;5146059;28;20047;-72
2022/05/13 02:24:29;;;;;;;2.67;1.35;;;13.80;99.90;;;14.13;71.36;101250.91;5146429;28;20137;-72
2022/05/13 02:27:01;;;;;;;2.33;1.25;;;13.90;99.90;;;14.16;70.94;101258.88;5146319;28;20398;-72
2022/05/13 02:29:33;;;;;;;3.55;1.75;;;13.90;99.90;;;14.20;70.96;101260.72;5146679;28;20093;-72
2022/05/13 02:32:07;;;;;;;2.53;1.33;;;13.90;99.90;;;14.26;70.42;101247.78;5146082;28;20047;-72
2022/05/13 02:34:39;;;;;;;2.00;1.27;;;14.00;99.90;;;14.33;69.86;101254.97;5146408;28;20051;-72
2022/05/13 02:37:11;;;;;;;2.00;1.17;;;14.00;99.90;;;14.38;69.36;101258.59;5145882;28;20125;-72
2022/05/13 02:39:44;;;;;;;3.00;1.40;;;14.10;99.90;;;14.45;68.89;101254.41;5146118;28;20138;-72
2022/05/13 02:42:16;;;;;;;3.55;1.00;;;14.20;99.90;;;14.51;68.39;101248.47;5145964;28;20512;-72
2022/05/13 02:44:48;;;;;;;1.20;0.93;;;14.20;99.90;;;14.54;67.88;101244.22;5146271;28;20061;-72
2022/05/13 02:47:20;;;;;;;1.33;1.02;;;14.30;99.90;;;14.58;67.75;101250.41;5145963;28;20047;-72
2022/05/13 02:50:17;;;;;;;5.75;1.05;;;14.30;99.90;;;14.60;67.33;101254.84;5145832;28;20048;-72
2022/05/13 02:52:44;;;;;;;3.25;1.20;;;14.30;99.90;;;14.64;66.09;101250.56;5145453;28;20503;-72
2022/05/13 02:55:19;;;;;;;3.08;1.00;;;14.40;99.60;;;14.70;65.46;101250.72;5146191;28;20097;-72
2022/05/13 02:57:51;;;;;;;1.85;1.02;;;14.40;99.20;;;14.76;65.05;101245.63;5145584;28;20058;-72
2022/05/13 03:00:23;;;;;;;1.63;1.00;;;14.40;98.90;;;14.80;64.63;101243.94;5146036;28;20046;-72
2022/05/13 03:02:55;;;;;;;1.83;1.35;;;14.50;98.60;;;14.83;64.38;101247.56;5145704;28;20057;-71
2022/05/13 03:05:29;;;;;;;1.35;1.10;;;14.60;98.30;;;14.87;64.01;101245.91;5145667;28;20059;-72
2022/05/13 03:08:01;;;;;;;1.75;0.95;;;14.60;98.00;;;14.89;63.50;101252.97;5145801;28;20058;-72
2022/05/13 03:10:38;;;;;;;1.63;1.00;;;14.60;97.80;;;14.91;63.25;101251.25;5145287;28;20053;-72
2022/05/13 03:13:10;;;;;;;3.30;0.98;;;14.70;97.50;;;14.92;63.07;101247.75;5145553;28;20142;-72
2022/05/13 03:15:42;;;;;;;1.33;1.20;;;14.70;97.30;;;14.95;62.57;101246.09;5145585;28;20290;-71
2022/05/13 03:18:15;;;;;;;2.92;1.10;;;14.70;97.10;;;14.99;62.21;101242.66;5145520;28;20138;-71
2022/05/13 03:20:47;;;;;;;1.55;0.93;;;14.70;96.80;;;15.01;61.74;101251.50;5145372;28;20149;-71
2022/05/13 03:23:19;;;;;;;1.50;0.93;;;14.70;96.50;;;15.04;61.43;101249.81;5145374;28;20053;-71
2022/05/13 03:25:52;;;;;;;1.95;1.00;;;14.80;96.20;;;15.06;61.05;101255.09;5144875;28;20137;-71
2022/05/13 03:28:24;;;;;;;3.03;1.10;;;14.80;96.00;;;15.10;60.70;101259.56;5145206;28;20053;-71
2022/05/13 03:30:57;;;;;;;0.82;0.77;;;14.80;95.80;;;15.12;60.28;101256.13;5145393;28;20496;-71
2022/05/13 03:33:29;;;;;;;1.65;1.08;;;14.80;95.40;;;15.13;59.99;101257.91;5145166;28;20051;-71
2022/05/13 03:36:02;;;;;;;1.00;0.90;;;14.80;95.10;;;15.15;59.68;101263.19;5145355;28;20058;-72
2022/05/13 03:38:34;;;;;;;1.35;1.00;;;14.80;95.00;;;15.15;59.46;101260.56;5144812;28;20051;-71
2022/05/13 03:41:08;;;;;;;2.08;1.23;;;14.90;94.70;;;15.13;59.51;101260.53;5144787;28;20137;-71
2022/05/13 03:43:40;;;;;;;1.13;0.82;;;14.90;94.70;;;15.12;59.50;101270.97;5144836;28;20129;-71
2022/05/13 03:46:12;;;;;;;2.20;0.77;;;14.80;94.60;;;15.05;59.11;101269.94;5144735;28;20050;-71
2022/05/13 03:48:44;;;;;;;0.95;0.73;;;14.80;94.30;;;15.00;58.98;101268.09;5145008;28;20500;-72
2022/05/13 03:51:16;;;;;;;1.00;0.85;;;14.70;94.10;;;14.93;58.68;101261.78;5145146;28;20117;-71
2022/05/13 03:53:48;;;;;;;2.35;1.05;;;14.70;94.00;;;14.88;58.56;101260.81;5144562;28;20050;-71
2022/05/13 03:56:22;;;;;;;0.95;0.63;;;14.60;93.90;;;14.84;58.50;101259.81;5144927;28;20540;-71
2022/05/13 03:58:54;;;;;;;1.73;0.80;;;14.60;93.80;;;14.80;58.40;101268.50;5144478;28;20057;-72
2022/05/13 04:01:26;;;;;;;2.40;0.77;;;14.60;93.60;;;14.75;58.45;101274.47;5144525;28;20160;-71
2022/05/13 04:03:58;;;;;;;1.73;0.85;;;14.50;93.50;;;14.68;58.51;101273.44;5144477;28;20109;-71
2022/05/13 04:09:19;;;;;;;2.63;1.60;;;14.40;93.90;;;14.59;59.29;101281.03;5144882;28;20400;-71
2022/05/13 04:17:28;;;;;;;3.03;0.82;;;14.30;94.20;;;14.47;59.89;101263.22;5144007;28;20053;-71
2022/05/13 04:20:00;;;;;;;2.15;0.85;;;14.30;94.30;;;14.47;59.87;101278.09;5144523;28;20460;-71
2022/05/13 04:22:32;;;;;;;1.88;0.95;;;14.20;94.40;;;14.48;59.25;101269.41;5144292;28;20484;-71
2022/05/13 04:25:06;;;;;;;0.82;0.82;;;14.20;94.20;;;14.49;59.40;101268.53;5144250;28;20133;-71
2022/05/13 04:27:41;;;;;;;3.85;1.20;;;14.30;94.10;;;14.50;59.46;101278.19;5144148;28;20057;-71
2022/05/13 04:30:14;;;;;;;2.53;0.90;;;14.30;94.20;;;14.52;59.51;101281.72;5144481;28;20050;-71
2022/05/13 04:32:46;;;;;;;3.85;1.15;;;14.30;94.20;;;14.51;59.27;101269.47;5143804;28;20054;-71
2022/05/13 04:35:18;;;;;;;3.45;1.10;;;14.30;94.00;;;14.52;59.56;101271.22;5144624;28;20145;-71
2022/05/13 04:37:50;;;;;;;1.73;1.17;;;14.30;94.10;;;14.53;59.17;101273.88;5263547;23;20048;-68
2022/05/13 04:40:22;;;;;;;1.83;0.82;;;14.30;94.00;;;14.56;59.02;101268.75;5180533;28;20508;-68
2022/05/13 04:42:55;;;;;;;5.70;1.05;;;14.30;93.90;;;14.58;59.35;101276.63;5183632;28;20049;-68
2022/05/13 04:45:29;;;;;;;3.42;0.90;;;14.30;94.00;;;14.63;59.11;101278.53;5184026;28;20060;-68
2022/05/13 04:48:16;;;;;;;1.95;0.98;;;14.40;94.00;;;14.71;59.42;101281.34;5183499;28;20125;-68
2022/05/13 04:50:52;;;;;;;3.67;1.30;;;14.40;94.00;;;14.76;58.88;101287.63;5177722;28;20050;-70
2022/05/13 04:53:27;;;;;;;1.38;0.90;;;14.50;93.80;;;14.82;58.90;101287.78;5183841;28;20060;-69
2022/05/13 04:56:01;;;;;;;3.42;1.35;;;14.60;93.80;;;14.90;59.03;101296.72;5184805;28;20140;-69
2022/05/13 04:58:35;;;;;;;1.70;1.02;;;14.60;93.80;;;15.00;58.81;101292.59;5184067;28;20041;-68
2022/05/13 05:01:08;;;;;;;4.90;1.15;;;14.70;93.80;;;15.02;58.84;101301.41;5183984;28;20041;-68
2022/05/13 05:03:41;;;;;;;3.88;1.10;;;14.80;93.70;;;15.02;58.75;101301.41;5183943;28;20053;-69
2022/05/13 05:06:16;;;;;;;2.35;0.80;;;14.80;93.60;;;15.03;59.16;101307.53;5184126;28;20057;-69
2022/05/13 05:08:49;;;;;;;2.53;1.15;;;14.80;93.80;;;15.04;59.05;101309.31;5183169;28;20133;-68
2022/05/13 05:11:21;;;;;;;2.53;1.08;;;14.80;93.70;;;15.04;58.83;101307.56;5184131;28;20046;-68
2022/05/13 05:13:54;;;;;;;3.63;0.95;;;14.80;93.70;;;15.08;58.88;101316.41;5183729;28;20052;-69
2022/05/13 05:16:26;;;;;;;2.97;1.10;;;14.80;93.70;;;15.13;59.02;101317.44;5183988;28;20072;-67
2022/05/13 05:18:59;;;;;;;5.72;1.10;;;14.90;93.80;;;15.33;58.90;101318.78;5183991;28;20056;-68
2022/05/13 05:21:31;;;;;;;1.55;1.05;;;15.00;93.90;;;15.76;57.42;101318.91;5183835;28;20081;-68
2022/05/13 05:24:04;;;;;;;2.67;1.20;;;15.30;93.30;;;16.12;55.62;101321.44;5183975;28;20046;-68
2022/05/13 05:26:36;;;;;;;5.20;1.30;;;15.60;92.10;;;16.27;54.24;101319.09;5184048;28;20050;-68
2022/05/13 05:29:09;;;;;;;4.28;1.10;;;15.80;91.00;;;16.27;53.96;101317.34;5183799;28;20042;-68
2022/05/13 05:31:41;;;;;;;5.28;1.23;;;15.90;90.60;;;16.17;53.87;101320.69;5183744;28;20136;-68
2022/05/13 05:34:13;;;;;;;2.30;1.15;;;15.90;90.20;;;16.06;54.00;101323.94;5184098;28;20081;-69
2022/05/13 05:36:46;;;;;;;2.15;1.00;;;15.80;90.10;;;16.08;54.60;101323.09;5183927;28;20056;-68
2022/05/13 05:39:18;;;;;;;3.20;1.15;;;15.80;90.40;;;16.36;54.71;101324.53;5183510;28;20136;-68
2022/05/13 05:41:50;;;;;;;3.35;1.05;;;16.00;90.70;;;16.78;53.43;101319.22;5183266;28;20046;-69
2022/05/13 05:44:23;;;;;;;3.03;1.00;;;16.30;90.20;;;17.08;51.94;101324.16;5183961;28;20057;-68
2022/05/13 05:46:55;;;;;;;2.50;1.30;;;16.60;88.30;;;17.12;51.28;101337.34;5183924;28;20054;-68
2022/05/13 05:49:27;;;;;;;3.20;1.10;;;16.70;86.70;;;17.13;51.25;101347.03;5186176;28;20049;-69
2022/05/13 05:51:59;;;;;;;3.65;1.30;;;16.70;86.00;;;17.14;51.36;101348.78;5187765;28;20056;-69
2022/05/13 05:57:22;;;;;;;3.63;1.10;;;16.90;85.60;;;17.68;50.30;101351.44;5187660;28;20121;-70
2022/05/13 05:59:55;;;;;;;3.28;1.20;;;17.20;84.60;;;18.00;49.50;101356.31;5187466;28;20050;-69
2022/05/13 06:02:28;;;;;;;2.47;1.13;;;17.40;83.30;;;18.06;48.67;101354.63;5186908;28;20511;-69
2022/05/13 06:05:00;;;;;;;2.47;1.15;;;17.60;81.80;;;18.00;48.95;101357.19;5187497;28;20050;-68
2022/05/13 06:07:32;;;;;;;4.32;1.20;;;17.60;81.40;;;17.89;49.52;101364.06;5187150;28;20046;-70
2022/05/13 06:10:05;;;;;;;2.00;1.10;;;17.50;82.00;;;17.86;49.75;101364.88;5187398;28;20050;-68
2022/05/13 06:12:36;;;;;;;2.17;1.27;;;17.50;82.20;;;17.83;49.73;101363.97;5186734;28;20430;-70
2022/05/13 06:15:12;;;;;;;3.80;1.02;;;17.40;82.00;;;17.81;50.12;101371.00;5187401;28;20056;-68
2022/05/13 06:17:48;;;;;;;4.15;0.95;;;17.40;82.40;;;17.77;50.22;101367.41;5187215;28;20049;-68
2022/05/13 06:20:24;;;;;;;1.52;0.93;;;17.40;82.50;;;17.78;50.43;101368.28;5187643;28;20513;-68
2022/05/13 06:22:56;;;;;;;3.83;0.90;;;17.40;82.70;;;17.82;50.31;101367.47;5186697;28;20049;-68
2022/05/13 06:25:28;;;;;;;2.97;0.93;;;17.40;82.70;;;17.85;49.97;101375.41;5187213;28;20180;-69
2022/05/13 06:28:02;;;;;;;4.38;1.23;;;17.40;82.20;;;17.88;50.22;101375.47;5187081;28;20050;-67
2022/05/13 06:30:38;;;;;;;3.47;1.02;;;17.50;82.20;;;17.91;50.00;101370.22;5186512;28;20042;-68
2022/05/13 06:33:10;;;;;;;6.22;1.52;;;17.50;82.10;;;18.10;50.34;101371.38;5185015;28;20135;-68
2022/05/13 06:35:43;;;;;;;2.97;1.40;;;17.60;82.70;;;18.43;49.80;101378.81;5186522;28;20490;-67
2022/05/13 06:38:20;;;;;;;2.92;1.02;;;17.80;82.70;;;18.73;49.01;101380.09;5186768;28;20281;-68
2022/05/13 06:40:53;;;;;;;3.08;1.08;;;18.10;81.60;;;19.02;47.96;101381.25;5186807;28;20045;-67
2022/05/13 06:43:26;;;;;;;3.75;1.00;;;18.30;80.20;;;19.32;47.40;101383.28;5186698;28;20076;-57
2022/05/13 06:45:59;;;;;;;6.60;1.85;;;18.60;79.20;;;19.66;46.63;101381.81;5186740;28;20064;-58
2022/05/13 06:48:31;;;;;;;8.02;1.30;;;19.00;78.00;;;19.95;45.51;101394.31;5187168;28;20330;-57
2022/05/13 06:51:04;;;;;;;5.35;1.23;;;19.30;76.30;;;20.10;44.67;101388.25;5186767;28;20495;-57
2022/05/13 06:53:36;;;;;;;4.07;1.35;;;19.40;74.70;;;20.14;44.73;101385.59;5186446;28;20490;-57
2022/05/13 06:56:08;;;;;;;3.67;0.90;;;19.50;74.30;;;20.28;44.43;101399.81;5186928;28;20491;-57
2022/05/13 06:58:40;;;;;;;6.05;1.13;;;19.60;73.60;;;20.43;44.02;101403.41;5186817;28;20060;-58
2022/05/13 07:01:13;;;;;;;3.05;1.13;;;19.80;72.90;;;20.53;43.85;101405.22;5185612;28;20104;-57
2022/05/13 07:03:45;;;;;;;3.97;1.02;;;19.90;72.50;;;20.47;43.88;101407.84;5186371;28;20050;-58
2022/05/13 07:06:17;;;;;;;3.65;1.10;;;19.90;72.00;;;20.36;44.12;101406.91;5186827;28;20080;-57
2022/05/13 07:08:51;;;;;;;3.40;1.00;;;19.80;72.10;;;20.41;44.35;101407.78;5186252;28;20050;-58
2022/05/13 07:11:23;;;;;;;2.10;0.98;;;19.80;72.50;;;20.58;43.96;101406.13;5186498;28;20439;-57
2022/05/13 07:13:55;;;;;;;3.65;1.10;;;19.90;72.00;;;20.79;43.27;101413.25;5186087;28;20483;-59
2022/05/13 07:16:28;;;;;;;4.03;1.08;;;20.10;71.40;;;20.89;43.21;101407.09;5186270;28;20050;-57
2022/05/13 07:19:00;;;;;;;3.95;1.05;;;20.20;71.00;;;20.97;42.93;101404.47;5185876;28;20056;-58
2022/05/13 07:21:32;;;;;;;3.55;1.52;;;20.30;70.60;;;21.03;42.63;101404.47;5184474;28;20379;-62
2022/05/13 07:24:05;;;;;;;2.65;0.93;;;20.30;70.00;;;21.05;42.58;101403.59;5186227;28;20077;-64
2022/05/13 07:26:37;;;;;;;2.55;1.10;;;20.30;69.60;;;21.14;41.57;101406.28;5184786;28;20042;-64
2022/05/13 07:29:09;;;;;;;6.05;1.13;;;20.50;68.40;;;21.30;41.74;101407.19;5185811;28;20053;-64
2022/05/13 07:31:43;;;;;;;4.75;0.90;;;20.50;68.60;;;21.56;41.85;101408.94;5184774;28;20096;-65
2022/05/13 07:34:16;;;;;;;3.30;1.02;;;20.70;68.70;;;21.90;41.00;101404.47;5186264;28;20046;-65
2022/05/13 07:36:53;;;;;;;3.20;1.30;;;21.00;68.10;;;22.29;39.87;101408.81;5186531;28;20089;-66
2022/05/13 07:42:16;;;;;;;4.60;1.92;;;21.60;65.50;;;22.93;38.52;101419.16;5184755;28;20053;-65
2022/05/13 07:44:48;;;;;;;7.78;1.55;;;21.90;64.30;;;23.09;38.05;101417.31;5183917;28;20074;-65
2022/05/13 07:47:21;;;;;;;4.13;0.93;;;22.10;63.80;;;23.22;38.02;101420.75;5183614;28;20076;-66
2022/05/13 07:49:53;;;;;;;3.38;0.80;;;22.30;63.70;;;23.26;37.58;101427.81;5184072;28;20046;-54
2022/05/13 07:52:26;;;;;;;3.55;1.10;;;22.30;62.60;;;23.20;37.77;101426.06;5181761;28;20395;-55
2022/05/13 07:54:58;;;;;;;2.83;1.00;;;22.30;62.50;;;23.15;37.86;101424.38;5183106;28;20046;-54
2022/05/13 07:57:30;;;;;;;1.73;0.70;;;22.20;62.50;;;22.97;37.35;101428.91;5184906;28;20060;-55
2022/05/13 08:02:56;;;;;;;3.15;0.93;;;22.00;61.80;;;22.89;37.53;101433.38;5179097;28;20042;-54
2022/05/13 08:05:32;;;;;;;1.90;0.77;;;21.90;62.00;;;22.98;37.37;101428.00;5182379;28;20053;-54
2022/05/13 08:08:09;;;;;;;2.78;0.70;;;21.90;61.90;;;23.04;37.40;101431.53;5181816;28;20128;-55
2022/05/13 08:10:46;;;;;;;3.65;1.38;;;21.90;61.90;;;23.18;37.75;101434.97;5184583;28;20323;-65
2022/05/13 08:13:18;;;;;;;3.85;0.90;;;22.00;62.40;;;23.26;37.05;101427.81;5179768;28;20533;-66
2022/05/13 08:15:51;;;;;;;3.03;0.98;;;22.00;61.60;;;23.38;36.93;101427.72;5176743;28;20046;-64
2022/05/13 08:18:25;;;;;;;4.13;0.93;;;22.10;61.60;;;23.48;36.73;101423.22;5184756;28;20045;-66
2022/05/13 08:20:58;;;;;;;1.45;0.82;;;22.10;61.40;;;23.63;36.63;101427.53;5184573;28;20050;-65
2022/05/13 08:23:30;;;;;;;2.50;0.93;;;22.20;61.40;;;23.80;36.14;101431.81;5182805;28;20045;-66
2022/05/13 08:26:04;;;;;;;3.35;1.00;;;22.20;61.40;;;23.96;36.02;101424.56;5183877;28;20052;-66
2022/05/13 08:28:36;;;;;;;2.40;1.05;;;22.30;61.20;;;24.26;36.27;101430.44;5184754;28;20054;-67
2022/05/13 08:31:09;;;;;;;4.18;0.82;;;22.40;61.60;;;24.63;35.23;101431.75;5184511;28;20048;-65
2022/05/13 08:33:43;;;;;;;3.30;0.95;;;22.70;60.50;;;25.17;34.16;101423.94;5184234;28;20414;-65
2022/05/13 08:36:16;;;;;;;2.53;0.65;;;23.00;59.90;;;25.83;32.71;101420.19;5184696;28;20056;-65
2022/05/13 08:38:50;;;;;;;4.25;0.68;;;23.40;58.40;;;26.46;32.21;101434.97;5184681;28;20096;-70
2022/05/13 08:41:45;;;;;;;4.20;1.10;;;23.90;57.90;;;26.78;30.55;101434.28;5184512;28;20560;-69
2022/05/13 08:44:18;;;;;;;5.00;0.70;;;24.30;55.40;;;26.82;30.70;101445.81;5184378;28;20058;-69
2022/05/13 08:46:59;;;;;;;2.28;0.68;;;24.40;55.40;;;27.30;30.62;101444.69;5185071;28;20422;-69
2022/05/13 08:49:37;;;;;;;4.88;0.80;;;24.70;55.90;;;27.62;29.74;101445.69;5185227;28;20060;-69
2022/05/13 08:55:24;;;;;;;4.55;0.80;;;25.30;54.10;;;28.37;28.04;101441.94;5184958;28;20104;-68
2022/05/13 08:57:59;;;;;;;4.43;1.05;;;25.70;52.70;;;28.22;28.36;101441.44;5184809;28;20053;-69
2022/05/13 09:00:36;;;;;;;2.53;1.00;;;25.70;52.50;;;28.41;28.34;101436.47;5184881;28;20086;-69
2022/05/13 09:03:23;;;;;;;1.33;0.70;;;25.80;52.70;;;28.74;27.23;101440.81;5184662;28;20072;-70
2022/05/13 09:06:04;;;;;;;2.47;0.50;;;26.00;51.10;;;28.95;26.73;101449.16;5185128;28;20068;-68
2022/05/13 09:08:37;;;;;;;2.38;0.70;;;26.20;50.50;;;29.19;26.51;101451.94;5184954;28;20068;-69
2022/05/13 09:11:17;;;;;;;2.63;0.88;;;26.40;50.20;;;29.33;26.16;101448.81;5184928;28;20141;-70
2022/05/13 09:14:00;;;;;;;2.28;0.75;;;26.60;49.80;;;29.49;25.88;101440.28;5184435;28;20046;-69
2022/05/13 09:16:49;;;;;;;3.67;1.00;;;26.80;49.30;;;29.35;26.12;101449.66;5184918;28;20053;-69
2022/05/13 09:19:31;;;;;;;1.85;0.60;;;27.00;49.40;;;28.42;26.62;101440.91;5184793;28;20050;-70
2022/05/13 09:22:06;;;;;;;1.52;0.80;;;26.60;48.90;;;27.42;27.13;101445.31;5184380;28;20058;-68
2022/05/13 09:24:39;;;;;;;3.30;1.13;;;25.90;48.40;;;26.77;28.61;101453.94;5187517;28;20148;-69
2022/05/13 09:27:11;;;;;;;2.95;0.90;;;25.40;49.80;;;26.36;29.42;101441.41;5188763;28;20058;-69
2022/05/13 09:29:46;;;;;;;3.72;0.90;;;25.10;50.50;;;26.00;30.14;101441.22;5188714;28;20042;-69
2022/05/13 09:32:26;;;;;;;2.42;0.68;;;24.80;51.20;;;25.81;30.53;101442.47;5188481;28;20050;-69
2022/05/13 09:35:05;;;;;;;3.55;0.90;;;24.70;51.50;;;25.78;29.84;101448.75;5189254;28;20059;-68
2022/05/13 09:37:41;;;;;;;1.58;0.93;;;24.70;50.90;;;25.24;29.17;101450.53;5188825;28;20412;-69
2022/05/13 09:40:27;;;;;;;1.83;0.70;;;24.30;49.50;;;24.39;29.96;101448.09;5188442;28;20050;-68
2022/05/13 09:42:59;;;;;;;1.77;0.57;;;23.70;49.60;;;23.96;30.99;101453.84;5188211;28;20054;-68
2022/05/13 09:45:33;;;;;;;1.60;0.60;;;23.30;50.80;;;24.07;31.92;101440.44;5188831;28;20542;-69
2022/05/13 09:48:14;;;;;;;2.95;0.50;;;23.30;52.30;;;24.19;32.51;101444.72;5188309;28;20096;-68
2022/05/13 09:50:51;;;;;;;;;;;23.40;52.90;;;24.04;31.64;101446.66;5188636;28;20146;-68
2022/05/13 09:53:34;;;;;;;4.10;0.70;;;23.30;51.80;;;23.64;31.66;101446.16;5187936;28;20370;-68
2022/05/13 09:56:06;;;;;;;2.65;0.70;;;23.00;51.50;;;23.34;31.74;101439.25;5188469;28;20530;-68
2022/05/13 09:58:54;;;;;;;5.18;0.73;;;22.70;51.50;;;23.21;32.56;101445.56;5188282;28;20041;-68
2022/05/13 10:01:29;;;;;;;1.13;0.50;;;22.60;52.50;;;23.32;32.45;101442.84;5188046;28;20140;-67
2022/05/13 10:04:10;;;;;;;1.40;0.68;;;22.60;52.60;;;23.42;32.31;101442.78;5188029;28;20057;-68
2022/05/13 10:06:43;;;;;;;2.38;0.60;;;22.70;52.60;;;23.41;33.01;101432.13;5188245;28;20443;-67
2022/05/13 10:15:31;;;;;;;4.07;0.95;;;22.70;53.20;;;23.21;32.59;101442.91;5188094;28;20096;-69
2022/05/13 10:18:15;;;;;;;2.25;0.70;;;22.50;52.60;;;22.99;33.79;101434.19;5187936;28;20418;-68
2022/05/13 10:20:49;;;;;;;3.38;0.75;;;22.30;53.80;;;22.99;33.48;101435.09;5187858;28;20483;-68
2022/05/13 10:23:28;;;;;;;1.95;0.50;;;22.30;53.60;;;23.03;33.43;101430.63;5187596;28;20058;-68
2022/05/13 10:26:05;;;;;;;1.23;0.60;;;22.30;53.80;;;23.36;33.16;101434.84;5188052;28;20056;-68
2022/05/13 10:28:41;;;;;;;2.15;0.82;;;22.50;53.50;;;23.75;32.66;101435.41;5187740;28;20079;-68
2022/05/13 10:31:19;;;;;;;3.75;1.10;;;22.80;53.20;;;23.89;32.54;101441.50;5187263;28;20046;-68
2022/05/13 10:34:00;;;;;;;3.03;1.10;;;23.00;53.00;;;23.69;32.52;101433.69;5187457;28;20197;-68
2022/05/13 10:36:41;;;;;;;2.30;0.90;;;22.90;52.70;;;23.62;33.09;101433.78;5186396;28;20587;-68
2022/05/13 10:41:52;;;;;;;1.65;0.73;;;22.70;53.30;;;23.39;33.53;101448.09;5196965;23;20057;-72
2022/05/13 10:44:34;;;;;;;2.45;0.93;;;22.70;53.80;;;23.56;33.79;101448.84;5189091;28;20049;-71
2022/05/13 10:47:14;;;;;;;1.20;0.50;;;22.70;54.00;;;23.85;33.53;101447.72;5187463;28;20052;-72
2022/05/13 10:49:47;;;;;;;1.83;0.70;;;22.90;54.10;;;24.01;32.19;101444.03;5187154;28;20045;-73
2022/05/13 10:52:45;;;;;;;1.80;0.60;;;23.10;52.50;;;23.96;32.89;101436.97;5186731;28;20132;-72
2022/05/13 10:55:25;;;;;;;1.42;0.80;;;23.10;53.40;;;23.88;33.08;101447.72;5187133;28;20050;-72
2022/05/13 10:58:21;;;;;;;3.08;0.95;;;23.10;53.30;;;23.89;33.54;101449.47;5187099;28;20139;-72
2022/05/13 11:01:16;;;;;;;2.80;1.13;;;23.10;53.80;;;24.03;33.67;101439.56;5186955;28;20161;-72
2022/05/13 11:04:02;;;;;;;2.75;0.95;;;23.20;54.20;;;24.04;32.83;101440.44;5186581;28;20129;-72
2022/05/13 11:06:52;;;;;;;5.35;1.35;;;23.20;53.30;;;23.55;33.17;101431.13;5186870;28;20609;-72
2022/05/13 11:09:39;;;;;;;3.85;0.95;;;22.90;53.30;;;23.22;33.54;101431.41;5186938;28;20056;-72
2022/05/13 11:12:21;;;;;;;2.70;0.80;;;22.60;54.10;;;23.04;34.18;101428.88;5186467;28;20049;-72
2022/05/13 11:15:13;;;;;;;3.25;0.70;;;22.40;54.20;;;23.13;34.17;101429.66;5187085;28;20050;-71
2022/05/13 11:17:56;;;;;;;2.30;0.60;;;22.40;54.60;;;23.46;33.25;101436.50;5186549;28;20093;-72